Tanja — D5GS4 — position and weather

sailwx.info

Track history (hours):
 
Tides and Currents Weather Stations Pressure Air Temp Water Temp Dewpoint Dewpoint Depression Visibility Wind Speed Wind Dir Waves Ship Positions

Tanja

Last reported at 2018-Aug-17 23:39 UTC. Time now 2018-Aug-19 22:52 UTC.
Position N 43°09' W 069°04'.

Length 185 m; draft 7.5 m.

Type: Cargo ship. MMSI: 636092598.

Date/timePositionNaut miles runAvg speedWind from/ knotsBaromVisibWave heightAir tempDewpointWater temp
2018-Aug-17 23:39N 43°09' W 069°04'313.4
2018-Aug-17 23:27N 43°10' W 069°07'613.1
2018-Aug-17 22:59N 43°13' W 069°14'613.2
2018-Aug-17 22:30N 43°17' W 069°21'713.6
2018-Aug-17 22:00N 43°21' W 069°28'912.9
2018-Aug-17 21:18N 43°24' W 069°40'311.9
2018-Aug-17 21:00N 43°25' W 069°45'612.8
2018-Aug-17 20:30N 43°27' W 069°53'611.8
2018-Aug-17 20:00N 43°29' W 070°01'510.0
2018-Aug-17 19:29N 43°32' W 070°07'49 1.6
2018-Aug-16 13:21N 43°56' W 069°08'512.2
2018-Aug-16 12:57N 43°58' W 069°02'511.7
2018-Aug-16 12:29N 44°03' W 069°00'612.4
2018-Aug-16 12:00N 44°09' W 069°00'612.3
2018-Aug-16 11:30N 44°15' W 068°59'5 0.2
2018-Aug-15 04:03N 44°20' W 068°56'210.5
2018-Aug-15 03:54N 44°18' W 068°57'410.4
2018-Aug-15 03:31N 44°15' W 068°59'510.2
2018-Aug-15 03:01N 44°10' W 069°00'510.5
2018-Aug-15 02:31N 44°05' W 069°01'5 9.8
2018-Aug-15 02:00N 43°60' W 068°58'510.1
2018-Aug-15 01:29N 43°56' W 068°53'4 9.0
2018-Aug-15 01:01N 43°56' W 068°48'  
Track history (hours):
 
Tides and Currents Weather Stations Pressure Air Temp Water Temp Dewpoint Dewpoint Depression Visibility Wind Speed Wind Dir Waves Ship Positions

Tanja

Last reported at 2018-Aug-17 23:39 UTC. Time now 2018-Aug-19 22:52 UTC.
Position N 43°09' W 069°04'.

Length 185 m; draft 7.5 m.

Type: Cargo ship. MMSI: 636092598.

Date/timePositionNaut miles runAvg speedWind from/ knotsBaromVisibWave heightAir tempDewpointWater temp
2018-Aug-17 23:39N 43°09' W 069°04'313.4
2018-Aug-17 23:27N 43°10' W 069°07'613.1
2018-Aug-17 22:59N 43°13' W 069°14'613.2
2018-Aug-17 22:30N 43°17' W 069°21'713.6
2018-Aug-17 22:00N 43°21' W 069°28'912.9
2018-Aug-17 21:18N 43°24' W 069°40'311.9
2018-Aug-17 21:00N 43°25' W 069°45'612.8
2018-Aug-17 20:30N 43°27' W 069°53'611.8
2018-Aug-17 20:00N 43°29' W 070°01'510.0
2018-Aug-17 19:29N 43°32' W 070°07'49 1.6
2018-Aug-16 13:21N 43°56' W 069°08'512.2
2018-Aug-16 12:57N 43°58' W 069°02'511.7
2018-Aug-16 12:29N 44°03' W 069°00'612.4
2018-Aug-16 12:00N 44°09' W 069°00'612.3
2018-Aug-16 11:30N 44°15' W 068°59'5 0.2
2018-Aug-15 04:03N 44°20' W 068°56'210.5
2018-Aug-15 03:54N 44°18' W 068°57'410.4
2018-Aug-15 03:31N 44°15' W 068°59'510.2
2018-Aug-15 03:01N 44°10' W 069°00'510.5
2018-Aug-15 02:31N 44°05' W 069°01'5 9.8
2018-Aug-15 02:00N 43°60' W 068°58'510.1
2018-Aug-15 01:29N 43°56' W 068°53'4 9.0
2018-Aug-15 01:01N 43°56' W 068°48'  

Dump ship's entire track history